Time;durP1;ratioP1;P1;durP2;ratioP2;P2;SDS_P1;SDS_P2;PMS_P1;PMS_P2;Temp;Humidity;BMP_temperature;BMP_pressure;BME280_temperature;BME280_humidity;BME280_pressure;Samples;Min_cycle;Max_cycle;Signal;HPM_P1;HPM_P2
2022/08/08 00:02:19;;;;;;;6.97;6.37;;;15.00;99.90;;;;;;2612839;46;20429;-78
2022/08/08 00:05:04;;;;;;;7.53;6.93;;;14.90;99.90;;;;;;2613519;54;20408;-81
2022/08/08 00:07:43;;;;;;;6.63;6.13;;;14.60;99.90;;;;;;2613537;31;20903;-81
2022/08/08 00:10:14;;;;;;;9.50;6.77;;;14.50;99.90;;;;;;2612773;46;20457;-79
2022/08/08 00:12:50;;;;;;;7.30;6.80;;;14.40;99.90;;;;;;2613007;54;20477;-79
2022/08/08 00:15:21;;;;;;;7.50;6.93;;;14.40;99.90;;;;;;2613051;54;21171;-74
2022/08/08 00:18:02;;;;;;;7.73;7.07;;;14.40;99.90;;;;;;2612618;54;20436;-74
2022/08/08 00:20:48;;;;;;;6.80;6.20;;;14.40;99.90;;;;;;2612365;47;20498;-72
2022/08/08 00:23:26;;;;;;;7.17;6.60;;;14.30;99.90;;;;;;2612608;39;20885;-72
2022/08/08 00:25:56;;;;;;;7.23;6.67;;;14.20;99.90;;;;;;2612749;54;20398;-79
2022/08/08 00:28:34;;;;;;;7.50;6.90;;;14.20;99.90;;;;;;2612783;54;20435;-80
2022/08/08 00:31:02;;;;;;;8.33;7.30;;;14.30;99.90;;;;;;2613170;47;20417;-82
2022/08/08 00:33:39;;;;;;;7.83;6.50;;;14.20;99.90;;;;;;2613708;54;20421;-81
2022/08/08 00:36:29;;;;;;;8.77;6.43;;;14.20;99.90;;;;;;2612268;54;20424;-79
2022/08/08 00:39:16;;;;;;;6.93;6.33;;;14.30;99.90;;;;;;2613000;54;20397;-79
2022/08/08 00:42:13;;;;;;;6.93;6.33;;;14.50;99.90;;;;;;2613300;54;20417;-81
2022/08/08 00:44:58;;;;;;;8.23;7.53;;;14.30;99.90;;;;;;2613196;54;20435;-74
2022/08/08 00:47:48;;;;;;;6.67;6.17;;;14.20;99.90;;;;;;2612902;54;20434;-75
2022/08/08 00:50:34;;;;;;;7.17;6.67;;;14.20;99.90;;;;;;2613326;39;20873;-72
2022/08/08 00:53:18;;;;;;;7.47;6.90;;;14.20;99.90;;;;;;2612965;31;20946;-72
2022/08/08 00:56:08;;;;;;;8.73;6.37;;;14.10;99.90;;;;;;2613393;54;20851;-81
2022/08/08 00:58:55;;;;;;;7.90;7.20;;;14.10;99.90;;;;;;2615278;54;20420;-81
2022/08/08 01:01:32;;;;;;;7.63;7.00;;;13.90;99.90;;;;;;2615560;39;20816;-81
2022/08/08 01:04:16;;;;;;;7.70;7.10;;;13.90;99.90;;;;;;2614649;54;20440;-81
2022/08/08 01:07:19;;;;;;;7.80;7.00;;;13.90;99.90;;;;;;2613880;47;20403;-79
2022/08/08 01:10:08;;;;;;;7.07;6.57;;;13.70;99.90;;;;;;2614808;54;20414;-78
2022/08/08 01:13:22;;;;;;;7.57;6.97;;;13.70;99.90;;;;;;2614725;54;20411;-79
2022/08/08 01:16:17;;;;;;;7.57;6.97;;;13.50;99.90;;;;;;2612539;54;20430;-73
2022/08/08 01:19:00;;;;;;;7.70;7.10;;;13.50;99.90;;;;;;2612620;39;20737;-73
2022/08/08 01:21:37;;;;;;;7.73;7.23;;;13.60;99.90;;;;;;2612065;54;20423;-78
2022/08/08 01:24:24;;;;;;;8.80;8.00;;;13.50;99.90;;;;;;2612873;54;20428;-79
2022/08/08 01:27:26;;;;;;;7.90;7.30;;;13.60;99.90;;;;;;2612890;54;20480;-74
2022/08/08 01:30:06;;;;;;;7.93;7.20;;;13.50;99.90;;;;;;2612201;54;20461;-75
2022/08/08 01:32:56;;;;;;;7.63;7.03;;;13.60;99.90;;;;;;2613077;39;20826;-75
2022/08/08 01:35:38;;;;;;;9.10;7.13;;;13.80;99.90;;;;;;2612117;54;20554;-75
2022/08/08 01:38:19;;;;;;;7.63;6.90;;;13.60;99.90;;;;;;2613345;39;20769;-78
2022/08/08 01:41:02;;;;;;;8.27;7.67;;;13.30;99.90;;;;;;2612941;54;20427;-79
2022/08/08 01:43:35;;;;;;;9.43;8.70;;;13.30;99.90;;;;;;2612709;54;20414;-79
2022/08/08 01:46:23;;;;;;;8.40;7.60;;;13.30;99.90;;;;;;2612862;54;20407;-81
2022/08/08 01:49:18;;;;;;;7.50;6.90;;;13.20;99.90;;;;;;2612833;47;20427;-81
2022/08/08 01:51:50;;;;;;;8.67;8.07;;;13.20;99.90;;;;;;2613432;31;20998;-81
2022/08/08 01:54:33;;;;;;;8.97;8.27;;;13.40;99.90;;;;;;2613653;54;20404;-82
2022/08/08 01:56:58;;;;;;;8.40;7.70;;;13.40;99.90;;;;;;2614401;54;20428;-73
2022/08/08 01:59:30;;;;;;;8.70;7.90;;;13.30;99.90;;;;;;2614370;54;21037;-72
2022/08/08 02:02:16;;;;;;;9.03;7.67;;;13.40;99.90;;;;;;2614482;31;21138;-82
2022/08/08 02:04:45;;;;;;;8.10;7.47;;;13.10;99.90;;;;;;2614940;39;20826;-82
2022/08/08 02:07:58;;;;;;;8.73;8.03;;;13.00;99.90;;;;;;2614329;54;20431;-79
2022/08/08 02:10:31;;;;;;;8.30;7.60;;;12.90;99.90;;;;;;2612913;47;20546;-79
2022/08/08 02:13:09;;;;;;;8.50;7.80;;;13.00;99.90;;;;;;2612322;54;20457;-80
2022/08/08 02:15:44;;;;;;;9.90;9.00;;;12.90;99.90;;;;;;2612151;54;20416;-81
2022/08/08 02:18:18;;;;;;;8.10;7.50;;;12.90;99.90;;;;;;2612954;54;20443;-81
2022/08/08 02:24:04;;;;;;;8.90;8.10;;;12.60;99.90;;;;;;2612511;39;20850;-79
2022/08/08 02:26:41;;;;;;;9.20;8.30;;;12.80;99.90;;;;;;2612575;54;20419;-82
2022/08/08 02:29:53;;;;;;;8.47;7.80;;;13.00;99.90;;;;;;2613727;39;20985;-78
2022/08/08 02:32:19;;;;;;;8.10;7.43;;;12.90;99.90;;;;;;2612632;54;20427;-79
2022/08/08 02:35:19;;;;;;;9.07;7.50;;;12.80;99.90;;;;;;2612543;54;20441;-74
2022/08/08 02:38:02;;;;;;;8.50;7.80;;;12.80;99.90;;;;;;2612392;54;20279;-74
2022/08/08 02:40:58;;;;;;;8.83;8.13;;;12.60;99.90;;;;;;2612271;47;20425;-75
2022/08/08 02:43:45;;;;;;;8.70;7.80;;;12.70;99.90;;;;;;2612540;47;20465;-73
2022/08/08 02:46:14;;;;;;;8.87;8.17;;;12.70;99.90;;;;;;2612726;54;20511;-73
2022/08/08 02:48:53;;;;;;;8.90;8.10;;;12.70;99.90;;;;;;2613368;47;20423;-73
2022/08/08 02:51:43;;;;;;;8.90;8.20;;;12.70;99.90;;;;;;2612154;47;20427;-73
2022/08/08 02:54:44;;;;;;;8.90;8.20;;;12.80;99.90;;;;;;2612590;54;20428;-82
2022/08/08 02:57:22;;;;;;;9.23;8.00;;;12.70;99.90;;;;;;2612790;47;20419;-82
2022/08/08 03:00:19;;;;;;;10.07;9.20;;;12.70;99.90;;;;;;2613164;47;20453;-79
2022/08/08 03:03:02;;;;;;;8.90;8.10;;;12.50;99.90;;;;;;2612522;54;20419;-78
2022/08/08 03:06:01;;;;;;;9.97;9.07;;;12.50;99.90;;;;;;2612351;54;20387;-73
2022/08/08 03:08:39;;;;;;;10.67;9.20;;;12.30;99.90;;;;;;2613081;31;20869;-79
2022/08/08 03:11:23;;;;;;;9.97;8.97;;;12.10;99.90;;;;;;2612493;54;20443;-79
2022/08/08 03:14:09;;;;;;;10.00;9.27;;;12.10;99.90;;;;;;2612456;54;20422;-75
2022/08/08 03:16:47;;;;;;;11.37;9.00;;;12.20;99.90;;;;;;2612034;54;20421;-75
2022/08/08 03:19:24;;;;;;;10.33;9.30;;;12.00;99.90;;;;;;2612561;54;20418;-81
2022/08/08 03:21:49;;;;;;;10.40;7.93;;;12.20;99.90;;;;;;2613344;54;20379;-82
2022/08/08 03:24:16;;;;;;;9.10;8.40;;;12.20;99.90;;;;;;2614029;54;20430;-82
2022/08/08 03:26:51;;;;;;;9.00;8.30;;;12.10;99.90;;;;;;2614109;54;20168;-81
2022/08/08 03:29:22;;;;;;;9.87;9.07;;;12.00;99.90;;;;;;2614643;47;20426;-80
2022/08/08 03:34:34;;;;;;;11.40;10.40;;;12.10;99.90;;;;;;2614695;54;20994;-81
2022/08/08 03:37:00;;;;;;;10.13;9.27;;;12.00;99.90;;;;;;2614097;54;20431;-81
2022/08/08 03:39:26;;;;;;;10.33;9.53;;;12.00;99.90;;;;;;2614225;54;20442;-77
2022/08/08 03:41:51;;;;;;;10.50;9.60;;;11.90;99.90;;;;;;2614028;54;20155;-78
2022/08/08 03:44:17;;;;;;;10.60;9.60;;;11.90;99.90;;;;;;2614362;54;20415;-78
2022/08/08 03:46:47;;;;;;;11.30;9.03;;;11.90;99.90;;;;;;2613179;54;20193;-79
2022/08/08 03:49:24;;;;;;;11.10;10.00;;;11.80;99.90;;;;;;2613507;54;20155;-73
2022/08/08 03:51:55;;;;;;;10.43;9.43;;;11.70;99.90;;;;;;2613750;54;20866;-72
2022/08/08 03:54:22;;;;;;;11.87;9.30;;;11.70;99.90;;;;;;2614180;54;20402;-78
2022/08/08 03:56:48;;;;;;;9.70;9.00;;;11.80;99.90;;;;;;2614017;54;20462;-79
2022/08/08 03:59:14;;;;;;;16.67;11.27;;;11.90;99.90;;;;;;2614191;39;21168;-72
2022/08/08 04:01:40;;;;;;;10.23;9.30;;;11.90;99.90;;;;;;2613765;54;20200;-72
2022/08/08 04:04:07;;;;;;;11.20;9.13;;;11.90;99.90;;;;;;2614008;54;20428;-78
2022/08/08 04:06:33;;;;;;;10.53;9.63;;;12.00;99.90;;;;;;2614246;54;20406;-79
2022/08/08 04:09:02;;;;;;;12.10;9.47;;;12.00;99.90;;;;;;2614474;47;20935;-75
2022/08/08 04:11:27;;;;;;;18.40;9.67;;;12.00;99.90;;;;;;2613757;47;20925;-74
2022/08/08 04:13:53;;;;;;;9.50;8.83;;;12.00;99.90;;;;;;2613820;54;20438;-79
2022/08/08 04:16:19;;;;;;;10.73;9.70;;;12.00;99.90;;;;;;2615110;54;20190;-79
2022/08/08 04:18:47;;;;;;;10.23;9.43;;;12.00;99.90;;;;;;2614899;54;20656;-81
2022/08/08 04:21:14;;;;;;;11.10;10.10;;;12.10;99.90;;;;;;2614301;47;20968;-81
2022/08/08 04:23:40;;;;;;;11.20;10.20;;;12.00;99.90;;;;;;2615107;39;20508;-81
2022/08/08 04:26:06;;;;;;;11.40;10.40;;;11.90;99.90;;;;;;2614647;54;20447;-81
2022/08/08 04:28:32;;;;;;;10.57;9.30;;;11.90;99.90;;;;;;2615202;54;20163;-81
2022/08/08 04:30:58;;;;;;;14.10;10.60;;;12.00;99.90;;;;;;2615126;54;20410;-81
2022/08/08 04:33:24;;;;;;;16.87;11.57;;;12.00;99.90;;;;;;2615337;54;20455;-81
2022/08/08 04:35:50;;;;;;;11.73;10.63;;;12.00;99.90;;;;;;2615025;54;20514;-82
2022/08/08 04:38:16;;;;;;;11.60;10.60;;;12.10;99.90;;;;;;2615451;39;20983;-80
2022/08/08 04:40:42;;;;;;;13.07;11.10;;;12.10;99.90;;;;;;2615051;54;20431;-81
2022/08/08 04:43:08;;;;;;;14.13;11.73;;;12.20;99.90;;;;;;2614402;54;21001;-80
2022/08/08 04:45:33;;;;;;;12.90;11.10;;;12.30;99.90;;;;;;2614933;39;20699;-82
2022/08/08 04:47:59;;;;;;;10.83;10.00;;;12.30;99.90;;;;;;2614583;54;20197;-82
2022/08/08 04:50:26;;;;;;;14.07;11.27;;;12.30;99.90;;;;;;2614170;54;20154;-80
2022/08/08 04:52:52;;;;;;;12.30;11.13;;;12.50;99.90;;;;;;2614817;46;20184;-80
2022/08/08 04:55:18;;;;;;;17.47;11.03;;;12.40;99.90;;;;;;2614589;54;20944;-79
2022/08/08 04:57:44;;;;;;;11.97;10.73;;;12.60;99.90;;;;;;2614485;54;20420;-79
2022/08/08 05:00:12;;;;;;;11.70;10.50;;;12.80;99.90;;;;;;2614237;39;20758;-82
2022/08/08 05:02:38;;;;;;;12.37;11.00;;;12.90;99.90;;;;;;2614083;54;20983;-82
2022/08/08 05:05:04;;;;;;;19.90;12.80;;;13.10;99.90;;;;;;2614808;54;20418;-80
2022/08/08 05:07:30;;;;;;;17.10;13.17;;;13.60;99.90;;;;;;2614577;54;20179;-81
2022/08/08 05:09:56;;;;;;;14.10;12.70;;;13.90;99.90;;;;;;2614143;47;20468;-82
2022/08/08 05:12:22;;;;;;;13.87;11.90;;;14.20;99.90;;;;;;2613590;54;21002;-82
2022/08/08 05:14:48;;;;;;;15.80;14.23;;;14.40;99.90;;;;;;2614554;54;20193;-74
2022/08/08 05:17:13;;;;;;;14.13;12.63;;;14.50;99.90;;;;;;2614222;54;20172;-74
2022/08/08 05:19:39;;;;;;;18.70;13.93;;;14.60;99.90;;;;;;2613667;54;20168;-74
2022/08/08 05:22:07;;;;;;;15.33;13.83;;;14.70;99.90;;;;;;2613849;54;20160;-74
2022/08/08 05:24:32;;;;;;;14.73;13.07;;;15.00;99.90;;;;;;2613406;46;20168;-76
2022/08/08 05:26:58;;;;;;;14.83;13.20;;;15.10;99.90;;;;;;2614518;39;20758;-76
2022/08/08 05:29:25;;;;;;;14.73;13.10;;;15.30;99.90;;;;;;2614340;54;20167;-76
2022/08/08 05:31:50;;;;;;;14.00;12.67;;;15.50;99.90;;;;;;2614357;54;20164;-77
2022/08/08 05:34:19;;;;;;;13.63;12.53;;;15.70;99.90;;;;;;2614328;54;20538;-76
2022/08/08 05:36:48;;;;;;;13.50;12.30;;;16.20;99.90;;;;;;2614583;39;20676;-75
2022/08/08 05:39:18;;;;;;;14.80;13.30;;;16.50;99.90;;;;;;2614593;54;20468;-80
2022/08/08 05:41:45;;;;;;;12.50;11.30;;;16.90;99.90;;;;;;2614328;54;20414;-80
2022/08/08 05:44:23;;;;;;;12.80;11.50;;;17.40;99.90;;;;;;2614998;54;20993;-82
2022/08/08 05:46:52;;;;;;;14.93;12.43;;;17.60;99.90;;;;;;2614958;54;20428;-80
2022/08/08 05:49:19;;;;;;;11.30;10.30;;;17.80;99.90;;;;;;2615378;39;20786;-82
2022/08/08 05:51:46;;;;;;;12.03;10.83;;;17.90;99.90;;;;;;2614652;47;20454;-82
2022/08/08 05:54:12;;;;;;;12.50;11.40;;;17.90;99.90;;;;;;2614773;54;20445;-76
2022/08/08 05:56:40;;;;;;;12.80;11.50;;;18.10;99.90;;;;;;2613992;54;20433;-75
2022/08/08 05:59:18;;;;;;;13.40;12.10;;;18.30;99.90;;;;;;2614720;54;20416;-83
2022/08/08 06:01:51;;;;;;;12.07;11.07;;;18.40;99.90;;;;;;2614210;54;20475;-83
2022/08/08 06:04:22;;;;;;;13.63;12.30;;;18.90;99.90;;;;;;2614895;54;20431;-82
2022/08/08 06:06:49;;;;;;;12.20;11.10;;;19.10;99.90;;;;;;2615245;39;20791;-82
2022/08/08 06:09:16;;;;;;;12.83;11.60;;;19.10;99.90;;;;;;2614721;54;20434;-82
2022/08/08 06:11:43;;;;;;;13.83;12.37;;;18.70;99.90;;;;;;2614109;47;20453;-83
2022/08/08 06:14:08;;;;;;;12.07;11.00;;;18.70;99.90;;;;;;2614693;54;20421;-84
2022/08/08 06:16:40;;;;;;;11.90;10.60;;;18.60;99.90;;;;;;2614380;54;20422;-84
2022/08/08 06:19:08;;;;;;;13.23;10.83;;;18.70;99.60;;;;;;2614852;39;20975;-82
2022/08/08 06:21:36;;;;;;;12.93;11.70;;;19.30;97.00;;;;;;2614524;54;20414;-83
2022/08/08 06:24:02;;;;;;;11.70;10.80;;;19.50;91.10;;;;;;2614342;54;20421;-74
2022/08/08 06:26:33;;;;;;;11.77;10.60;;;19.20;90.30;;;;;;2613531;54;20475;-74
2022/08/08 06:29:09;;;;;;;13.37;12.17;;;18.60;93.50;;;;;;2614078;47;20175;-83
2022/08/08 06:31:37;;;;;;;13.13;12.03;;;19.10;93.40;;;;;;2614240;54;20898;-83
2022/08/08 06:34:19;;;;;;;12.30;11.20;;;19.70;84.80;;;;;;2609438;54;20429;-83
2022/08/08 06:36:47;;;;;;;13.70;12.60;;;20.30;69.20;;;;;;2607970;54;20477;-82
2022/08/08 06:39:13;;;;;;;13.37;12.17;;;20.50;61.90;;;;;;2608581;54;20422;-82
2022/08/08 06:41:50;;;;;;;14.20;12.70;;;20.50;54.40;;;;;;2608695;46;20446;-81
2022/08/08 06:44:17;;;;;;;12.80;11.70;;;20.30;56.10;;;;;;2608711;54;20446;-82
2022/08/08 06:46:43;;;;;;;15.43;12.80;;;20.40;55.90;;;;;;2607397;46;20429;-81
2022/08/08 06:49:10;;;;;;;16.73;13.50;;;20.20;55.60;;;;;;2608623;54;20469;-82
2022/08/08 06:51:36;;;;;;;15.90;13.93;;;20.20;52.00;;;;;;2608665;54;20438;-83
2022/08/08 06:54:02;;;;;;;13.90;12.63;;;20.10;52.50;;;;;;2608904;54;20450;-82
2022/08/08 06:56:29;;;;;;;13.63;12.37;;;20.20;47.50;;;;;;2607701;52;20262;-83
2022/08/08 06:58:55;;;;;;;13.60;12.40;;;20.50;53.50;;;;;;2608554;54;20171;-83
2022/08/08 07:01:23;;;;;;;12.70;11.43;;;20.70;52.50;;;;;;2608507;54;20594;-82
2022/08/08 07:04:01;;;;;;;17.20;15.80;;;21.30;46.30;;;;;;2609086;54;21029;-82
2022/08/08 07:06:32;;;;;;;15.40;12.23;;;20.60;37.10;;;;;;2609327;54;20541;-83
2022/08/08 07:09:07;;;;;;;12.27;11.27;;;20.60;42.80;;;;;;2613053;54;20435;-82
2022/08/08 07:11:40;;;;;;;14.30;13.20;;;21.30;43.60;;;;;;2614592;54;20431;-82
2022/08/08 07:14:07;;;;;;;14.53;13.00;;;21.60;35.20;;;;;;2615115;54;20454;-83
2022/08/08 07:17:05;;;;;;;13.27;12.27;;;21.80;31.80;;;;;;2613338;47;20427;-82
2022/08/08 07:19:47;;;;;;;15.37;12.50;;;21.50;33.00;;;;;;2609777;39;20514;-82
2022/08/08 07:22:16;;;;;;;15.00;13.50;;;21.60;33.60;;;;;;2609341;54;20430;-83
2022/08/08 07:24:54;;;;;;;13.67;12.77;;;20.20;32.90;;;;;;2608468;54;20424;-83
2022/08/08 07:27:25;;;;;;;13.23;12.17;;;21.40;34.40;;;;;;2608632;54;20419;-82
2022/08/08 07:29:51;;;;;;;13.80;12.63;;;22.10;29.20;;;;;;2608868;39;20808;-83
2022/08/08 07:32:18;;;;;;;14.50;13.20;;;21.50;29.20;;;;;;2609059;54;20514;-82
2022/08/08 07:34:44;;;;;;;12.17;10.87;;;21.70;29.90;;;;;;2608706;54;20435;-83
2022/08/08 07:37:12;;;;;;;12.53;11.47;;;22.20;27.30;;;;;;2608380;54;20530;-83
2022/08/08 07:39:42;;;;;;;12.70;11.37;;;22.60;21.30;;;;;;2609038;39;21201;-83
2022/08/08 07:42:14;;;;;;;12.53;11.43;;;21.90;23.70;;;;;;2608333;54;20434;-82
2022/08/08 07:44:44;;;;;;;12.40;11.10;;;21.80;24.00;;;;;;2609343;54;21255;-82
2022/08/08 07:47:10;;;;;;;11.87;10.77;;;21.80;23.60;;;;;;2608928;54;20469;-83
2022/08/08 07:49:36;;;;;;;10.43;9.53;;;22.40;22.10;;;;;;2608935;47;20433;-83
2022/08/08 07:52:03;;;;;;;11.40;10.40;;;22.80;19.00;;;;;;2609282;39;20504;-83
2022/08/08 07:54:45;;;;;;;13.33;12.17;;;23.00;17.50;;;;;;2609429;54;20439;-82
2022/08/08 07:57:19;;;;;;;12.13;10.90;;;23.30;17.50;;;;;;2609035;54;20432;-83
2022/08/08 08:00:14;;;;;;;11.43;10.53;;;23.60;16.80;;;;;;2609247;39;20727;-83
2022/08/08 08:02:46;;;;;;;11.60;10.67;;;22.90;14.70;;;;;;2607698;39;21016;-81
2022/08/08 08:05:23;;;;;;;13.10;12.00;;;22.60;17.70;;;;;;2607220;39;20526;-82
2022/08/08 08:07:53;;;;;;;13.40;11.30;;;22.60;18.60;;;;;;2607468;31;20614;-82
2022/08/08 08:10:19;;;;;;;11.93;11.13;;;22.50;18.50;;;;;;2607386;39;20716;-82
2022/08/08 08:12:54;;;;;;;14.03;11.70;;;23.30;19.60;;;;;;2607666;39;20978;-82
2022/08/08 08:15:24;;;;;;;11.83;10.87;;;23.50;15.10;;;;;;2607391;39;20221;-81
2022/08/08 08:17:57;;;;;;;12.73;11.53;;;23.30;16.80;;;;;;2607863;54;20467;-82
2022/08/08 08:20:27;;;;;;;12.27;11.30;;;23.70;15.20;;;;;;2606980;54;20432;-82
2022/08/08 08:22:53;;;;;;;12.70;11.40;;;23.60;14.00;;;;;;2607885;54;20438;-83
2022/08/08 08:25:19;;;;;;;11.33;10.30;;;23.10;13.30;;;;;;2607301;54;21022;-83
2022/08/08 08:27:44;;;;;;;15.37;11.40;;;24.20;12.90;;;;;;2607502;54;20725;-82
2022/08/08 08:30:10;;;;;;;12.03;11.00;;;24.90;10.00;;;;;;2607199;54;20151;-83
2022/08/08 08:32:36;;;;;;;11.97;10.93;;;24.50;11.00;;;;;;2607859;39;20283;-83
2022/08/08 08:35:03;;;;;;;12.70;11.03;;;24.50;10.70;;;;;;2606843;54;20409;-83
2022/08/08 08:37:29;;;;;;;10.87;9.60;;;24.00;10.00;;;;;;2608008;39;21164;-82
2022/08/08 08:39:55;;;;;;;11.10;10.10;;;24.20;9.60;;;;;;2607314;54;20425;-81
2022/08/08 08:42:23;;;;;;;12.37;10.23;;;24.40;9.70;;;;;;2607291;47;20173;-82
2022/08/08 08:44:50;;;;;;;10.73;9.73;;;24.70;8.10;;;;;;2607361;54;20658;-82
2022/08/08 08:47:18;;;;;;;10.53;9.47;;;25.00;7.60;;;;;;2607383;54;20514;-83
2022/08/08 08:49:43;;;;;;;10.43;9.50;;;24.90;4.20;;;;;;2607504;47;20440;-82
2022/08/08 08:52:15;;;;;;;11.00;9.90;;;24.90;7.90;;;;;;2607505;54;20455;-82
2022/08/08 08:54:42;;;;;;;11.20;10.50;;;25.50;6.40;;;;;;2607131;54;20173;-82
2022/08/08 08:57:09;;;;;;;11.23;10.33;;;23.80;5.40;;;;;;2607783;39;20938;-83
2022/08/08 08:59:39;;;;;;;10.77;9.67;;;24.10;7.50;;;;;;2607881;39;20924;-82
2022/08/08 09:02:16;;;;;;;10.40;9.30;;;24.50;9.20;;;;;;2607325;47;20432;-82
2022/08/08 09:04:44;;;;;;;10.67;9.67;;;23.10;7.80;;;;;;2607797;39;21225;-83
2022/08/08 09:07:11;;;;;;;15.23;10.57;;;24.20;9.00;;;;;;2607094;54;20449;-83
2022/08/08 09:09:39;;;;;;;11.40;10.20;;;25.00;6.70;;;;;;2609436;54;20541;-83
2022/08/08 09:12:08;;;;;;;10.00;9.00;;;25.30;4.00;;;;;;2608428;54;20411;-83
2022/08/08 09:14:35;;;;;;;10.30;9.27;;;24.70;3.90;;;;;;2609232;54;20413;-83
2022/08/08 09:17:01;;;;;;;9.60;8.70;;;25.70;4.80;;;;;;2611871;54;20438;-84
2022/08/08 09:19:27;;;;;;;8.70;8.10;;;26.60;1.00;;;;;;2614616;54;20430;-75
2022/08/08 09:21:53;;;;;;;8.67;8.10;;;26.00;1.10;;;;;;2614025;54;21018;-75
2022/08/08 09:24:20;;;;;;;9.80;9.00;;;24.30;1.00;;;;;;2614587;39;20586;-75
2022/08/08 09:27:12;;;;;;;9.00;8.20;;;25.60;1.20;;;;;;2613027;54;20442;-75
2022/08/08 09:29:51;;;;;;;9.73;9.03;;;23.90;2.10;;;;;;2614112;54;20426;-81
2022/08/08 09:32:41;;;;;;;8.97;8.27;;;25.70;1.30;;;;;;2614731;54;20459;-82
2022/08/08 09:35:11;;;;;;;9.30;8.00;;;26.00;1.40;;;;;;2611628;54;20974;-78
2022/08/08 09:37:49;;;;;;;10.90;8.83;;;26.40;1.00;;;;;;2608744;39;20529;-78
2022/08/08 09:40:18;;;;;;;9.20;8.60;;;26.80;1.00;;;;;;2608414;54;20433;-77
2022/08/08 09:42:46;;;;;;;9.17;8.50;;;26.60;1.00;;;;;;2608288;54;20516;-77
2022/08/08 09:45:44;;;;;;;9.70;9.03;;;26.20;1.00;;;;;;2607062;54;20456;-78
2022/08/08 09:48:10;;;;;;;8.40;7.90;;;26.30;1.00;;;;;;2606721;54;20436;-77
2022/08/08 09:50:36;;;;;;;9.33;8.63;;;26.00;1.00;;;;;;2606778;54;20428;-77
2022/08/08 09:53:05;;;;;;;8.50;7.93;;;26.30;1.00;;;;;;2607092;31;20618;-77
2022/08/08 09:55:30;;;;;;;9.70;8.80;;;26.10;1.00;;;;;;2606395;54;20497;-77
2022/08/08 09:58:05;;;;;;;9.37;8.57;;;26.70;1.00;;;;;;2606627;54;20486;-79
2022/08/08 10:00:34;;;;;;;9.50;8.70;;;26.50;1.00;;;;;;2606909;39;20532;-78
2022/08/08 10:03:03;;;;;;;9.97;9.13;;;27.10;1.00;;;;;;2606514;54;20448;-78
2022/08/08 10:05:34;;;;;;;8.50;7.73;;;26.90;1.00;;;;;;2606430;46;20563;-78
2022/08/08 10:08:01;;;;;;;9.60;9.00;;;26.40;1.00;;;;;;2607065;46;20975;-78
2022/08/08 10:10:42;;;;;;;9.30;8.67;;;26.90;1.00;;;;;;2607041;39;20512;-78
2022/08/08 10:13:21;;;;;;;9.97;9.13;;;27.00;1.00;;;;;;2606350;54;20431;-78
2022/08/08 10:15:50;;;;;;;9.40;8.80;;;26.80;1.00;;;;;;2606754;39;20833;-78
2022/08/08 10:18:34;;;;;;;8.90;8.40;;;26.80;1.00;;;;;;2606706;54;20532;-78
2022/08/08 10:21:08;;;;;;;10.40;8.53;;;26.90;1.00;;;;;;2606826;54;21457;-77
2022/08/08 10:23:34;;;;;;;9.63;8.73;;;26.90;1.00;;;;;;2606543;39;20477;-79
2022/08/08 10:26:01;;;;;;;9.40;8.50;;;27.50;1.00;;;;;;2607654;54;21003;-78
2022/08/08 10:28:30;;;;;;;9.00;8.30;;;27.40;1.00;;;;;;2607859;54;20193;-78
2022/08/08 10:32:30;;;;;;;9.40;8.67;;;28.10;1.00;;;;;;2608204;46;20535;-78
2022/08/08 10:33:49;;;;;;;9.73;8.93;;;27.50;1.00;;;;;;2608628;39;20690;-78
2022/08/08 10:36:22;;;;;;;9.00;8.40;;;27.70;1.00;;;;;;2608645;39;21011;-78
2022/08/08 10:38:50;;;;;;;9.37;8.63;;;27.10;1.00;;;;;;2609127;39;20566;-78
2022/08/08 10:41:17;;;;;;;9.73;9.00;;;27.80;1.00;;;;;;2608408;54;20455;-78
2022/08/08 10:43:48;;;;;;;8.70;8.17;;;26.40;1.00;;;;;;2608335;54;20489;-78
2022/08/08 10:46:24;;;;;;;8.53;8.13;;;26.80;1.00;;;;;;2608048;54;20974;-77
2022/08/08 10:48:54;;;;;;;9.10;8.50;;;27.70;1.00;;;;;;2608071;54;20418;-77
2022/08/08 10:51:28;;;;;;;8.43;7.93;;;28.40;1.00;;;;;;2608511;39;20842;-77
2022/08/08 10:53:54;;;;;;;9.20;8.70;;;27.00;1.00;;;;;;2608370;47;21067;-77
2022/08/08 10:56:23;;;;;;;9.17;8.67;;;27.90;1.00;;;;;;2613548;54;20434;-78
2022/08/08 10:59:06;;;;;;;9.23;8.53;;;27.20;1.00;;;;;;2614410;39;20728;-78
2022/08/08 11:01:32;;;;;;;8.30;7.47;;;27.60;1.00;;;;;;2613489;54;20520;-77
2022/08/08 11:03:59;;;;;;;8.30;7.80;;;28.20;1.00;;;;;;2613736;54;20481;-77
2022/08/08 11:06:30;;;;;;;8.10;7.60;;;28.30;1.00;;;;;;2613353;54;20160;-77
2022/08/08 11:09:05;;;;;;;8.03;7.53;;;27.80;1.00;;;;;;2614628;39;21160;-81
2022/08/08 11:11:41;;;;;;;8.20;7.70;;;28.10;1.00;;;;;;2614251;54;20543;-82
2022/08/08 11:14:09;;;;;;;8.03;7.47;;;28.30;1.00;;;;;;2614379;54;20445;-82
2022/08/08 11:16:38;;;;;;;9.90;7.53;;;27.70;1.00;;;;;;2614742;54;20418;-82
2022/08/08 11:19:04;;;;;;;8.40;7.90;;;28.30;1.00;;;;;;2615450;54;20438;-79
2022/08/08 11:21:35;;;;;;;8.80;7.93;;;27.30;1.00;;;;;;2614733;54;20423;-79
2022/08/08 11:24:04;;;;;;;8.03;7.40;;;27.70;1.00;;;;;;2615022;54;20494;-82
2022/08/08 11:26:32;;;;;;;8.03;7.33;;;28.30;1.00;;;;;;2614580;54;20423;-81
2022/08/08 11:29:02;;;;;;;9.17;8.53;;;26.70;1.00;;;;;;2614689;54;20458;-79
2022/08/08 11:31:35;;;;;;;9.13;8.33;;;26.50;1.00;;;;;;2614838;54;20460;-79
2022/08/08 11:34:03;;;;;;;8.43;7.97;;;28.00;1.00;;;;;;2614780;54;20431;-75
2022/08/08 11:36:33;;;;;;;8.10;7.60;;;28.20;1.00;;;;;;2614380;47;20434;-75
2022/08/08 11:38:59;;;;;;;8.10;7.70;;;28.30;1.00;;;;;;2615278;54;20550;-84
2022/08/08 11:41:27;;;;;;;9.40;8.80;;;28.10;1.00;;;;;;2616369;39;20797;-84
2022/08/08 11:43:54;;;;;;;8.77;8.27;;;26.40;1.00;;;;;;2615476;54;20268;-79
2022/08/08 11:46:24;;;;;;;8.30;7.80;;;25.70;1.00;;;;;;2615070;54;20403;-79
2022/08/08 11:48:50;;;;;;;7.60;7.27;;;26.40;1.00;;;;;;2615993;54;20425;-84
2022/08/08 11:51:17;;;;;;;8.10;7.60;;;27.90;1.00;;;;;;2616386;54;20441;-84
2022/08/08 11:53:44;;;;;;;7.97;7.47;;;28.60;1.00;;;;;;2616303;54;20514;-81
2022/08/08 11:56:23;;;;;;;7.37;6.97;;;27.50;1.00;;;;;;2614923;54;20411;-82
2022/08/08 11:58:50;;;;;;;7.37;7.00;;;28.30;1.00;;;;;;2615225;54;20463;-81
2022/08/08 12:01:16;;;;;;;7.50;7.10;;;28.90;1.00;;;;;;2615072;47;20491;-81
2022/08/08 12:03:48;;;;;;;7.57;6.97;;;28.50;1.00;;;;;;2617225;54;20479;-82
2022/08/08 12:06:16;;;;;;;7.67;6.97;;;29.20;1.00;;;;;;2616477;54;20442;-81
2022/08/08 12:08:43;;;;;;;9.03;8.13;;;28.60;1.00;;;;;;2615204;54;20932;-76
2022/08/08 12:11:14;;;;;;;8.30;7.70;;;28.20;1.00;;;;;;2615247;39;20818;-77
2022/08/08 12:13:40;;;;;;;7.20;6.80;;;28.20;1.00;;;;;;2615045;39;20870;-81
2022/08/08 12:16:17;;;;;;;8.07;7.57;;;28.30;1.00;;;;;;2614945;54;20414;-82
2022/08/08 12:18:53;;;;;;;6.90;6.60;;;27.70;1.00;;;;;;2615249;39;20806;-78
2022/08/08 12:21:28;;;;;;;8.00;7.40;;;27.60;1.00;;;;;;2615214;31;20888;-77
2022/08/08 12:24:03;;;;;;;8.37;7.87;;;27.30;1.00;;;;;;2614593;54;20432;-77
2022/08/08 12:26:44;;;;;;;7.33;6.93;;;27.90;1.00;;;;;;2614179;54;20396;-78
2022/08/08 12:29:31;;;;;;;8.60;8.10;;;28.60;1.00;;;;;;2613072;54;20467;-81
2022/08/08 12:32:09;;;;;;;8.00;7.40;;;29.70;1.00;;;;;;2614381;54;20407;-82
2022/08/08 12:34:44;;;;;;;8.30;7.60;;;29.20;1.00;;;;;;2614553;54;20435;-82
2022/08/08 12:37:25;;;;;;;6.97;6.60;;;29.90;1.00;;;;;;2614672;54;20418;-82
2022/08/08 12:39:51;;;;;;;7.90;7.30;;;28.50;1.00;;;;;;2614930;47;20425;-79
2022/08/08 12:42:18;;;;;;;8.50;8.00;;;27.80;1.00;;;;;;2614362;54;20446;-79
2022/08/08 12:44:44;;;;;;;8.17;7.50;;;28.60;1.00;;;;;;2613249;46;20395;-82
2022/08/08 12:47:10;;;;;;;7.70;7.10;;;29.30;1.00;;;;;;2614582;54;20424;-82
2022/08/08 12:49:38;;;;;;;7.83;7.33;;;29.40;1.00;;;;;;2614989;54;20471;-82
2022/08/08 12:52:05;;;;;;;8.90;8.10;;;28.90;1.00;;;;;;2614633;54;20431;-81
2022/08/08 12:54:36;;;;;;;8.80;8.20;;;28.10;1.00;;;;;;2614377;47;20428;-79
2022/08/08 12:57:23;;;;;;;8.47;7.80;;;28.70;1.00;;;;;;2614072;54;20419;-79
2022/08/08 12:59:50;;;;;;;8.30;7.57;;;29.90;1.00;;;;;;2613222;47;20531;-82
2022/08/08 13:02:28;;;;;;;9.13;8.20;;;29.00;1.00;;;;;;2614689;54;20521;-83
2022/08/08 13:04:59;;;;;;;9.70;9.10;;;28.80;1.00;;;;;;2614602;39;20843;-79
2022/08/08 13:07:39;;;;;;;9.17;8.33;;;27.30;1.00;;;;;;2613949;54;20430;-79
2022/08/08 13:10:14;;;;;;;8.30;7.73;;;28.00;1.00;;;;;;2614293;54;20461;-75
2022/08/08 13:12:42;;;;;;;9.40;8.57;;;28.70;1.00;;;;;;2614077;54;20935;-75
2022/08/08 13:15:14;;;;;;;10.63;9.53;;;28.40;1.00;;;;;;2614043;54;20465;-79
2022/08/08 13:17:40;;;;;;;8.63;8.00;;;27.90;1.00;;;;;;2614263;54;20420;-79
2022/08/08 13:20:15;;;;;;;8.50;7.87;;;28.60;1.00;;;;;;2614657;39;20828;-81